createdAt,value
2019-03-09T00:00:40.632Z,-0.10
2019-03-09T00:03:07.144Z,-0.10
2019-03-09T00:05:33.617Z,-0.10
2019-03-09T00:08:00.187Z,-0.20
2019-03-09T00:10:26.782Z,-0.20
2019-03-09T00:12:53.290Z,-0.20
2019-03-09T00:15:20.067Z,-0.20
2019-03-09T00:17:46.661Z,-0.20
2019-03-09T00:20:13.013Z,-0.20
2019-03-09T00:22:41.272Z,-0.20
2019-03-09T00:25:09.576Z,-0.30
2019-03-09T00:27:37.784Z,-0.30
2019-03-09T00:30:11.242Z,-0.20
2019-03-09T00:32:37.757Z,-0.30
2019-03-09T00:35:04.236Z,-0.30
2019-03-09T00:37:30.641Z,-0.30
2019-03-09T00:39:57.107Z,-0.30
2019-03-09T00:42:23.704Z,-0.40
2019-03-09T00:44:50.531Z,-0.40
2019-03-09T00:47:17.029Z,-0.30
2019-03-09T00:49:43.608Z,-0.30
2019-03-09T00:52:10.221Z,-0.30
2019-03-09T00:54:36.728Z,-0.40
2019-03-09T00:57:03.229Z,-0.40
2019-03-09T00:59:29.927Z,-0.40
2019-03-09T01:01:56.406Z,-0.40
2019-03-09T01:04:22.923Z,-0.40
2019-03-09T01:06:51.276Z,-0.40
2019-03-09T01:09:17.709Z,-0.40
2019-03-09T01:11:44.201Z,-0.40
2019-03-09T01:14:11.674Z,-0.40
2019-03-09T01:16:38.152Z,-0.40
2019-03-09T01:19:04.759Z,-0.40
2019-03-09T01:21:31.180Z,-0.40
2019-03-09T01:23:57.799Z,-0.40
2019-03-09T01:26:24.346Z,-0.40
2019-03-09T01:28:50.963Z,-0.40
2019-03-09T01:31:17.467Z,-0.40
2019-03-09T01:33:43.998Z,-0.40
2019-03-09T01:36:10.623Z,-0.40
2019-03-09T01:38:37.161Z,-0.40
2019-03-09T01:41:03.610Z,-0.40
2019-03-09T01:43:30.314Z,-0.40
2019-03-09T01:45:56.878Z,-0.40
2019-03-09T01:48:23.468Z,-0.40
2019-03-09T01:50:49.973Z,-0.40
2019-03-09T01:53:16.446Z,-0.50
2019-03-09T01:55:42.981Z,-0.50
2019-03-09T01:58:09.554Z,-0.50
2019-03-09T02:00:37.055Z,-0.50
2019-03-09T02:03:03.631Z,-0.50
2019-03-09T02:05:30.220Z,-0.50
2019-03-09T02:07:56.740Z,-0.50
2019-03-09T02:10:23.141Z,-0.50
2019-03-09T02:12:49.682Z,-0.50
2019-03-09T02:15:16.282Z,-0.50
2019-03-09T02:17:42.804Z,-0.50
2019-03-09T02:20:11.093Z,-0.50
2019-03-09T02:22:37.510Z,-0.50
2019-03-09T02:25:07.964Z,-0.50
2019-03-09T02:27:35.708Z,-0.60
2019-03-09T02:30:03.318Z,-0.60
2019-03-09T02:32:29.840Z,-0.50
2019-03-09T02:34:56.357Z,-0.50
2019-03-09T02:37:22.789Z,-0.50
2019-03-09T02:40:02.757Z,-0.50
2019-03-09T02:42:29.270Z,-0.50
2019-03-09T02:44:55.756Z,-0.60
2019-03-09T02:47:22.110Z,-0.60
2019-03-09T02:49:48.647Z,-0.50
2019-03-09T02:52:15.038Z,-0.60
2019-03-09T02:54:41.624Z,-0.60
2019-03-09T02:57:08.136Z,-0.60
2019-03-09T02:59:34.512Z,-0.60
2019-03-09T03:02:02.890Z,-0.60
2019-03-09T03:04:29.480Z,-0.60
2019-03-09T03:06:55.952Z,-0.60
2019-03-09T03:09:22.564Z,-0.60
2019-03-09T03:11:48.972Z,-0.60
2019-03-09T03:14:15.459Z,-0.60
2019-03-09T03:16:41.949Z,-0.60
2019-03-09T03:19:08.460Z,-0.60
2019-03-09T03:21:35.069Z,-0.60
2019-03-09T03:24:01.475Z,-0.60
2019-03-09T03:26:28.001Z,-0.60
2019-03-09T03:28:54.584Z,-0.60
2019-03-09T03:31:21.178Z,-0.60
2019-03-09T03:33:47.748Z,-0.60
2019-03-09T03:36:14.289Z,-0.60
2019-03-09T03:38:40.892Z,-0.70
2019-03-09T03:41:07.285Z,-0.70
2019-03-09T03:43:33.976Z,-0.70
2019-03-09T03:46:00.551Z,-0.70
2019-03-09T03:48:27.204Z,-0.70
2019-03-09T03:50:53.812Z,-0.70
2019-03-09T03:53:20.433Z,-0.70
2019-03-09T03:55:47.020Z,-0.70
2019-03-09T03:58:13.538Z,-0.80
2019-03-09T04:00:40.261Z,-0.70
2019-03-09T04:03:06.721Z,-0.70
2019-03-09T04:05:33.997Z,-0.80
2019-03-09T04:08:00.463Z,-0.80
2019-03-09T04:10:27.090Z,-0.80
2019-03-09T04:12:55.464Z,-0.80
2019-03-09T04:15:22.075Z,-0.80
2019-03-09T04:17:48.808Z,-0.80
2019-03-09T04:20:15.305Z,-0.80
2019-03-09T04:22:41.862Z,-0.80
2019-03-09T04:25:08.428Z,-0.90
2019-03-09T04:27:35.050Z,-0.90
2019-03-09T04:30:02.806Z,-0.80
2019-03-09T04:32:29.289Z,-0.90
2019-03-09T04:34:55.801Z,-0.90
2019-03-09T04:37:22.394Z,-0.90
2019-03-09T04:39:48.879Z,-0.90
2019-03-09T04:42:15.142Z,-0.90
2019-03-09T04:44:41.736Z,-0.90
2019-03-09T04:47:09.701Z,-0.90
2019-03-09T04:49:36.173Z,-0.90
2019-03-09T04:52:02.556Z,-0.90
2019-03-09T04:54:29.034Z,-0.90
2019-03-09T04:56:55.425Z,-0.90
2019-03-09T04:59:21.844Z,-0.90
2019-03-09T05:01:48.296Z,-1.00
2019-03-09T05:04:27.413Z,-1.00
2019-03-09T05:06:53.834Z,-1.00
2019-03-09T05:09:46.343Z,-1.00
2019-03-09T05:12:13.885Z,-1.00
2019-03-09T05:14:40.403Z,-1.10
2019-03-09T05:17:07.009Z,-1.00
2019-03-09T05:19:33.423Z,-1.00
2019-03-09T05:21:59.766Z,-1.00
2019-03-09T05:24:26.408Z,-1.00
2019-03-09T05:26:52.903Z,-1.00
2019-03-09T05:29:19.374Z,-1.00
2019-03-09T05:31:45.894Z,-1.00
2019-03-09T05:34:12.394Z,-1.00
2019-03-09T05:36:39.033Z,-1.00
2019-03-09T05:39:05.526Z,-1.00
2019-03-09T05:41:31.995Z,-0.90
2019-03-09T05:43:58.580Z,-0.90
2019-03-09T05:46:24.983Z,-0.90
2019-03-09T05:48:51.464Z,-0.80
2019-03-09T05:51:17.864Z,-0.80
2019-03-09T05:53:44.405Z,-0.80
2019-03-09T05:56:11.041Z,-0.80
2019-03-09T05:58:37.590Z,-0.70
2019-03-09T06:01:04.206Z,-0.60
2019-03-09T06:03:30.784Z,-0.30
2019-03-09T06:05:57.362Z,0.50
2019-03-09T06:08:23.971Z,1.50
2019-03-09T06:10:50.429Z,2.40
2019-03-09T06:13:16.917Z,3.00
2019-03-09T06:15:43.514Z,3.00
2019-03-09T06:18:10.104Z,2.90
2019-03-09T06:20:36.688Z,2.80
2019-03-09T06:23:03.284Z,3.10
2019-03-09T06:25:29.953Z,3.70
2019-03-09T06:27:56.618Z,4.10
2019-03-09T06:30:23.101Z,4.10
2019-03-09T06:33:15.231Z,4.00
2019-03-09T06:35:41.760Z,4.10
2019-03-09T06:38:20.595Z,4.90
2019-03-09T06:40:47.171Z,5.20
2019-03-09T06:43:13.707Z,5.10
2019-03-09T06:45:40.116Z,5.10
2019-03-09T06:48:06.584Z,5.40
2019-03-09T06:50:33.049Z,5.80
2019-03-09T06:52:59.612Z,6.00
2019-03-09T06:55:25.998Z,6.70
2019-03-09T06:57:52.630Z,7.10
2019-03-09T07:00:25.795Z,7.40
2019-03-09T07:02:52.326Z,6.80
2019-03-09T07:05:18.837Z,5.30
2019-03-09T07:07:45.148Z,4.30
2019-03-09T07:10:11.728Z,3.50
2019-03-09T07:12:39.208Z,2.90
2019-03-09T07:15:22.878Z,2.50
2019-03-09T07:17:50.658Z,2.40
2019-03-09T07:20:17.214Z,2.20
2019-03-09T07:22:43.683Z,2.10
2019-03-09T07:25:10.199Z,1.90
2019-03-09T07:27:36.751Z,1.90
2019-03-09T07:30:13.149Z,1.90
2019-03-09T07:32:40.593Z,2.00
2019-03-09T07:35:07.841Z,2.30
2019-03-09T07:37:34.506Z,2.90
2019-03-09T07:40:01.261Z,3.40
2019-03-09T07:42:27.923Z,3.90
2019-03-09T07:44:54.579Z,4.30
2019-03-09T07:47:21.185Z,4.90
2019-03-09T07:49:47.841Z,5.00
2019-03-09T07:52:31.784Z,4.40
2019-03-09T07:54:58.452Z,4.00
2019-03-09T07:57:25.065Z,3.40
2019-03-09T07:59:52.556Z,3.20
2019-03-09T08:02:19.602Z,3.00
2019-03-09T08:04:46.137Z,2.90
2019-03-09T08:07:14.824Z,2.80
2019-03-09T08:09:41.567Z,2.70
2019-03-09T08:12:08.070Z,2.60
2019-03-09T08:14:34.790Z,2.40
2019-03-09T08:17:01.308Z,2.40
2019-03-09T08:19:27.828Z,2.30
2019-03-09T08:21:54.370Z,2.30
2019-03-09T08:24:21.182Z,2.40
2019-03-09T08:26:49.120Z,2.40
2019-03-09T08:29:15.738Z,2.50
2019-03-09T08:31:42.464Z,2.40
2019-03-09T08:34:09.026Z,2.40
2019-03-09T08:36:35.337Z,2.30
2019-03-09T08:39:02.003Z,2.20
2019-03-09T08:41:28.586Z,2.20
2019-03-09T08:43:55.315Z,2.20
2019-03-09T08:46:21.943Z,2.10
2019-03-09T08:49:00.532Z,2.00
2019-03-09T08:51:27.039Z,2.00
2019-03-09T08:53:53.393Z,2.00
2019-03-09T08:56:19.824Z,2.00
2019-03-09T08:58:46.558Z,2.00
2019-03-09T09:01:12.974Z,2.00
2019-03-09T09:03:40.290Z,2.10
2019-03-09T09:06:07.071Z,2.10
2019-03-09T09:08:34.444Z,2.20
2019-03-09T09:11:00.911Z,2.20
2019-03-09T09:13:27.546Z,2.30
2019-03-09T09:15:54.143Z,2.40
2019-03-09T09:18:20.892Z,2.40
2019-03-09T09:20:49.484Z,2.30
2019-03-09T09:23:16.125Z,2.40
2019-03-09T09:25:42.602Z,2.40
2019-03-09T09:28:09.458Z,2.50
2019-03-09T09:30:35.906Z,2.60
2019-03-09T09:33:02.554Z,2.60
2019-03-09T09:35:29.169Z,2.70
2019-03-09T09:37:55.755Z,2.80
2019-03-09T09:40:26.445Z,2.90
2019-03-09T09:42:53.005Z,2.90
2019-03-09T09:45:20.730Z,2.80
2019-03-09T09:47:47.202Z,2.70
2019-03-09T09:50:15.043Z,2.70
2019-03-09T09:52:41.573Z,2.60
2019-03-09T09:55:13.890Z,2.40
2019-03-09T09:57:40.497Z,2.30
2019-03-09T10:00:16.910Z,2.20
2019-03-09T10:02:44.794Z,2.10
2019-03-09T10:05:11.773Z,2.10
2019-03-09T10:07:38.242Z,2.20
2019-03-09T10:10:10.632Z,2.20
2019-03-09T10:12:37.338Z,2.10
2019-03-09T10:15:07.475Z,2.00
2019-03-09T10:17:34.152Z,2.00
2019-03-09T10:20:01.260Z,2.10
2019-03-09T10:22:28.642Z,2.00
2019-03-09T10:24:56.384Z,2.00
2019-03-09T10:27:23.103Z,2.10
2019-03-09T10:29:50.659Z,2.20
2019-03-09T10:32:18.849Z,2.40
2019-03-09T10:34:45.525Z,2.60
2019-03-09T10:37:12.129Z,2.60
2019-03-09T10:39:38.874Z,2.70
2019-03-09T10:42:05.338Z,2.70
2019-03-09T10:44:31.875Z,2.80
2019-03-09T10:46:58.625Z,2.90
2019-03-09T10:49:25.005Z,3.00
2019-03-09T10:51:51.479Z,3.00
2019-03-09T10:54:18.091Z,3.20
2019-03-09T10:56:44.672Z,3.30
2019-03-09T10:59:11.323Z,3.40
2019-03-09T11:01:37.834Z,3.50
2019-03-09T11:04:04.524Z,3.60
2019-03-09T11:06:32.935Z,3.80
2019-03-09T11:08:59.304Z,4.00
2019-03-09T11:11:25.967Z,4.30
2019-03-09T11:13:54.696Z,4.60
2019-03-09T11:16:21.142Z,4.70
2019-03-09T11:18:47.676Z,4.70
2019-03-09T11:21:14.362Z,4.80
2019-03-09T11:23:41.024Z,4.80
2019-03-09T11:26:08.819Z,4.90
2019-03-09T11:28:35.446Z,4.90
2019-03-09T11:31:02.005Z,5.00
2019-03-09T11:33:28.557Z,4.90
2019-03-09T11:35:55.337Z,5.00
2019-03-09T11:38:21.925Z,4.90
2019-03-09T11:40:56.892Z,4.90
2019-03-09T11:43:17.042Z,4.80
2019-03-09T11:45:43.680Z,4.80
2019-03-09T11:48:10.212Z,4.90
2019-03-09T11:50:36.830Z,5.00
2019-03-09T11:53:05.173Z,5.20
2019-03-09T11:55:31.675Z,5.30
2019-03-09T11:57:58.147Z,5.40
2019-03-09T12:00:35.720Z,5.50
2019-03-09T12:03:02.135Z,5.60
2019-03-09T12:05:28.739Z,5.80
2019-03-09T12:07:55.263Z,5.90
2019-03-09T12:10:21.767Z,5.80
2019-03-09T12:12:48.241Z,5.90
2019-03-09T12:15:15.601Z,6.10
2019-03-09T12:17:41.990Z,6.30
2019-03-09T12:20:09.566Z,6.40
2019-03-09T12:22:36.150Z,6.50
2019-03-09T12:25:05.039Z,6.40
2019-03-09T12:27:31.577Z,6.30
2019-03-09T12:29:58.226Z,6.20
2019-03-09T12:32:28.443Z,6.00
2019-03-09T12:34:56.805Z,5.80
2019-03-09T12:37:23.233Z,5.60
2019-03-09T12:39:49.791Z,5.60
2019-03-09T12:42:16.512Z,5.50
2019-03-09T12:44:43.102Z,5.30
2019-03-09T12:47:09.780Z,5.30
2019-03-09T12:49:36.401Z,5.30
2019-03-09T12:52:03.163Z,5.10
2019-03-09T12:54:31.465Z,5.50
2019-03-09T12:56:59.719Z,5.70
2019-03-09T12:59:26.155Z,5.90
2019-03-09T13:01:52.707Z,6.00
2019-03-09T13:04:19.334Z,6.00
2019-03-09T13:06:47.397Z,5.70
2019-03-09T13:09:17.067Z,5.30
2019-03-09T13:11:43.464Z,5.10
2019-03-09T13:14:10.055Z,5.00
2019-03-09T13:16:36.563Z,4.80
2019-03-09T13:19:03.155Z,4.80
2019-03-09T13:21:29.755Z,5.00
2019-03-09T13:23:56.832Z,5.00
2019-03-09T13:26:23.457Z,5.00
2019-03-09T13:28:50.114Z,5.10
2019-03-09T13:31:16.668Z,5.00
2019-03-09T13:33:43.002Z,5.00
2019-03-09T13:36:09.447Z,5.10
2019-03-09T13:38:35.955Z,5.20
2019-03-09T13:41:02.638Z,5.30
2019-03-09T13:43:29.332Z,5.30
2019-03-09T13:45:55.964Z,5.30
2019-03-09T13:48:22.604Z,5.30
2019-03-09T13:50:49.089Z,5.20
2019-03-09T13:53:16.405Z,5.10
2019-03-09T13:55:42.830Z,5.00
2019-03-09T13:58:09.355Z,4.90
2019-03-09T14:00:40.532Z,4.90
2019-03-09T14:03:04.139Z,5.00
2019-03-09T14:05:32.395Z,5.00
2019-03-09T14:07:58.794Z,4.80
2019-03-09T14:10:25.385Z,4.70
2019-03-09T14:12:51.961Z,4.60
2019-03-09T14:15:19.474Z,4.40
2019-03-09T14:17:45.964Z,4.30
2019-03-09T14:20:15.576Z,4.20
2019-03-09T14:22:42.066Z,4.10
2019-03-09T14:25:11.488Z,4.10
2019-03-09T14:27:38.358Z,4.10
2019-03-09T14:30:15.059Z,4.10
2019-03-09T14:32:41.672Z,4.10
2019-03-09T14:35:08.219Z,4.10
2019-03-09T14:37:35.572Z,4.00
2019-03-09T14:40:04.502Z,4.00
2019-03-09T14:42:31.130Z,4.10
2019-03-09T14:44:57.703Z,4.10
2019-03-09T14:47:24.356Z,4.00
2019-03-09T14:49:50.947Z,4.00
2019-03-09T14:52:17.433Z,4.10
2019-03-09T14:54:43.849Z,4.00
2019-03-09T14:57:10.354Z,4.00
2019-03-09T14:59:36.864Z,4.00
2019-03-09T15:02:03.395Z,4.00
2019-03-09T15:04:30.000Z,4.00
2019-03-09T15:06:58.350Z,3.90
2019-03-09T15:09:24.816Z,3.90
2019-03-09T15:11:51.548Z,3.90
2019-03-09T15:14:18.439Z,3.90
2019-03-09T15:16:45.147Z,3.90
2019-03-09T15:19:11.706Z,3.80
2019-03-09T15:21:38.202Z,3.80
2019-03-09T15:24:04.779Z,3.90
2019-03-09T15:26:31.333Z,3.80
2019-03-09T15:28:57.811Z,3.80
2019-03-09T15:31:24.224Z,3.80
2019-03-09T15:33:50.634Z,3.70
2019-03-09T15:36:17.146Z,3.80
2019-03-09T15:38:43.701Z,3.80
2019-03-09T15:41:10.260Z,3.80
2019-03-09T15:43:36.863Z,3.80
2019-03-09T15:46:03.366Z,3.80
2019-03-09T15:48:29.819Z,3.80
2019-03-09T15:50:56.416Z,3.80
2019-03-09T15:53:23.092Z,3.80
2019-03-09T15:55:49.712Z,3.70
2019-03-09T15:58:16.154Z,3.70
2019-03-09T16:00:42.655Z,3.80
2019-03-09T16:03:09.160Z,3.80
2019-03-09T16:05:35.644Z,3.90
2019-03-09T16:08:02.227Z,3.80
2019-03-09T16:10:30.313Z,3.70
2019-03-09T16:12:56.934Z,3.70
2019-03-09T16:15:23.436Z,3.80
2019-03-09T16:17:49.937Z,3.70
2019-03-09T16:20:18.326Z,3.60
2019-03-09T16:22:45.927Z,3.50
2019-03-09T16:25:12.477Z,3.50
2019-03-09T16:27:39.035Z,3.50
2019-03-09T16:30:11.841Z,3.40
2019-03-09T16:32:38.236Z,3.30
2019-03-09T16:35:06.054Z,3.30
2019-03-09T16:37:32.321Z,3.20
2019-03-09T16:39:59.829Z,3.20
2019-03-09T16:42:26.485Z,3.20
2019-03-09T16:44:53.098Z,3.10
2019-03-09T16:47:19.396Z,3.10
2019-03-09T16:49:45.907Z,3.00
2019-03-09T16:52:12.439Z,3.00
2019-03-09T16:54:38.796Z,3.00
2019-03-09T16:57:05.462Z,3.00
2019-03-09T16:59:31.988Z,3.00
2019-03-09T17:01:58.550Z,3.00
2019-03-09T17:04:24.900Z,3.00
2019-03-09T17:06:51.277Z,3.00
2019-03-09T17:09:17.735Z,3.00
2019-03-09T17:11:44.225Z,3.00
2019-03-09T17:14:10.820Z,3.00
2019-03-09T17:16:37.620Z,2.90
2019-03-09T17:19:03.969Z,3.00
2019-03-09T17:21:30.326Z,3.00
2019-03-09T17:23:56.731Z,3.00
2019-03-09T17:26:23.126Z,3.00
2019-03-09T17:28:49.421Z,2.90
2019-03-09T17:31:15.985Z,2.90
2019-03-09T17:33:42.395Z,2.90
2019-03-09T17:36:08.986Z,2.90
2019-03-09T17:38:35.538Z,2.80
2019-03-09T17:41:01.979Z,2.80
2019-03-09T17:43:28.459Z,2.80
2019-03-09T17:45:54.814Z,2.80
2019-03-09T17:48:23.658Z,2.80
2019-03-09T17:50:50.154Z,2.80
2019-03-09T17:53:16.431Z,2.80
2019-03-09T17:55:44.110Z,2.80
2019-03-09T17:58:10.478Z,2.80
2019-03-09T18:00:42.773Z,2.80
2019-03-09T18:03:09.213Z,2.90
2019-03-09T18:05:35.538Z,2.80
2019-03-09T18:08:02.063Z,2.90
2019-03-09T18:10:32.233Z,2.90
2019-03-09T18:13:00.530Z,2.90
2019-03-09T18:15:27.045Z,2.90
2019-03-09T18:17:53.587Z,2.80
2019-03-09T18:20:20.076Z,2.90
2019-03-09T18:22:46.361Z,2.90
2019-03-09T18:25:12.831Z,2.90
2019-03-09T18:27:39.303Z,2.90
2019-03-09T18:30:08.326Z,2.90
2019-03-09T18:32:34.794Z,2.90
2019-03-09T18:35:01.103Z,2.90
2019-03-09T18:37:27.732Z,2.90
2019-03-09T18:39:54.265Z,2.80
2019-03-09T18:42:20.769Z,2.90
2019-03-09T18:44:47.113Z,2.80
2019-03-09T18:47:13.413Z,2.90
2019-03-09T18:49:39.882Z,2.90
2019-03-09T18:52:06.485Z,2.80
2019-03-09T18:54:33.037Z,2.80
2019-03-09T18:56:59.326Z,2.60
2019-03-09T18:59:25.886Z,2.60
2019-03-09T19:01:52.351Z,2.50
2019-03-09T19:04:20.726Z,2.50
2019-03-09T19:06:49.163Z,2.40
2019-03-09T19:09:16.631Z,2.40
2019-03-09T19:11:43.028Z,2.40
2019-03-09T19:14:09.399Z,2.30
2019-03-09T19:16:35.852Z,2.30
2019-03-09T19:19:05.583Z,2.30
2019-03-09T19:21:31.959Z,2.20
2019-03-09T19:23:58.487Z,2.30
2019-03-09T19:26:24.763Z,2.30
2019-03-09T19:28:51.372Z,2.20
2019-03-09T19:31:17.818Z,2.20
2019-03-09T19:33:44.116Z,2.10
2019-03-09T19:36:10.509Z,2.10
2019-03-09T19:38:36.811Z,2.00
2019-03-09T19:41:03.262Z,2.10
2019-03-09T19:43:29.931Z,2.00
2019-03-09T19:45:57.400Z,2.00
2019-03-09T19:48:23.964Z,1.90
2019-03-09T19:50:50.487Z,1.90
2019-03-09T19:53:17.051Z,1.90
2019-03-09T19:55:43.574Z,1.90
2019-03-09T19:58:10.202Z,1.90
2019-03-09T20:00:36.657Z,1.90
2019-03-09T20:03:03.055Z,1.90
2019-03-09T20:05:29.603Z,1.80
2019-03-09T20:07:56.231Z,1.80
2019-03-09T20:10:22.717Z,1.80
2019-03-09T20:12:49.318Z,1.70
2019-03-09T20:15:16.813Z,1.70
2019-03-09T20:17:45.652Z,1.60
2019-03-09T20:20:13.482Z,1.60
2019-03-09T20:22:41.819Z,1.70
2019-03-09T20:25:08.750Z,1.70
2019-03-09T20:27:35.242Z,1.70
2019-03-09T20:30:01.751Z,1.60
2019-03-09T20:32:28.323Z,1.60
2019-03-09T20:34:54.824Z,1.50
2019-03-09T20:37:21.512Z,1.50
2019-03-09T20:39:48.078Z,1.50
2019-03-09T20:42:14.572Z,1.50
2019-03-09T20:44:41.061Z,1.50
2019-03-09T20:47:07.674Z,1.50
2019-03-09T20:49:34.110Z,1.40
2019-03-09T20:52:00.610Z,1.30
2019-03-09T20:54:27.001Z,1.30
2019-03-09T20:56:53.513Z,1.30
2019-03-09T20:59:19.818Z,1.30
2019-03-09T21:01:46.414Z,1.30
2019-03-09T21:04:14.316Z,1.30
2019-03-09T21:06:40.746Z,1.30
2019-03-09T21:09:07.366Z,1.30
2019-03-09T21:11:33.800Z,1.40
2019-03-09T21:14:00.323Z,1.30
2019-03-09T21:16:28.987Z,1.30
2019-03-09T21:18:54.984Z,1.30
2019-03-09T21:21:21.676Z,1.30
2019-03-09T21:23:48.057Z,1.30
2019-03-09T21:26:14.441Z,1.30
2019-03-09T21:28:40.745Z,1.20
2019-03-09T21:31:07.046Z,1.30
2019-03-09T21:33:33.468Z,1.20
2019-03-09T21:35:59.806Z,1.20
2019-03-09T21:38:26.328Z,1.20
2019-03-09T21:40:52.791Z,1.20
2019-03-09T21:43:20.746Z,1.10
2019-03-09T21:45:47.313Z,1.10
2019-03-09T21:48:13.586Z,1.10
2019-03-09T21:50:39.982Z,1.00
2019-03-09T21:53:06.790Z,1.00
2019-03-09T21:55:33.065Z,0.90
2019-03-09T21:57:59.334Z,0.80
2019-03-09T22:00:25.800Z,0.70
2019-03-09T22:02:52.338Z,0.60
2019-03-09T22:05:18.737Z,0.60
2019-03-09T22:07:46.157Z,0.60
2019-03-09T22:10:12.909Z,0.60
2019-03-09T22:12:39.394Z,0.50
2019-03-09T22:15:08.654Z,0.50
2019-03-09T22:17:35.189Z,0.50
2019-03-09T22:20:01.910Z,0.50
2019-03-09T22:22:28.498Z,0.40
2019-03-09T22:24:54.793Z,0.40
2019-03-09T22:27:21.297Z,0.40
2019-03-09T22:29:47.750Z,0.30
2019-03-09T22:32:14.123Z,0.30
2019-03-09T22:34:40.396Z,0.30
2019-03-09T22:37:06.851Z,0.30
2019-03-09T22:39:33.262Z,0.20
2019-03-09T22:41:59.741Z,0.30
2019-03-09T22:44:26.226Z,0.30
2019-03-09T22:46:52.717Z,0.20
2019-03-09T22:49:19.157Z,0.20
2019-03-09T22:51:45.646Z,0.20
2019-03-09T22:54:12.231Z,0.30
2019-03-09T22:56:38.623Z,0.20
2019-03-09T22:59:05.028Z,0.20
2019-03-09T23:01:31.595Z,0.00
2019-03-09T23:03:58.036Z,0.00
2019-03-09T23:06:24.584Z,-0.10
2019-03-09T23:08:51.016Z,-0.10
2019-03-09T23:11:17.401Z,-0.10
2019-03-09T23:13:43.839Z,-0.10
2019-03-09T23:16:10.354Z,-0.20
2019-03-09T23:18:36.794Z,-0.10
2019-03-09T23:21:03.290Z,-0.20
2019-03-09T23:23:29.722Z,-0.20
2019-03-09T23:25:56.081Z,-0.20
2019-03-09T23:28:22.537Z,-0.30
2019-03-09T23:30:49.051Z,-0.30
2019-03-09T23:33:16.565Z,-0.20
2019-03-09T23:35:43.145Z,-0.20
2019-03-09T23:38:09.802Z,-0.10
2019-03-09T23:40:36.293Z,-0.30
2019-03-09T23:43:02.755Z,-0.30
2019-03-09T23:45:29.147Z,-0.20
2019-03-09T23:47:55.715Z,-0.30
2019-03-09T23:50:22.371Z,-0.30
2019-03-09T23:52:49.063Z,-0.20
2019-03-09T23:55:22.081Z,-0.20
2019-03-09T23:57:45.558Z,-0.20
